Payson, Illinois
Current Conditions -  °F | °C
As of 10:54 AM on Saturday 20 Dec 2014 (Local Time) from KUIN Reporting Station
Haze Haze  
Wind Chill: 29°   Ceiling: 1100
Heat Index: 36°   Visibility: 4mi
Dew Point: 31°   Wind: 9mph
Humidity: 82%   Direction: 170°S
Pressure: 30.24"   Gusts: NA
Location:  39.82°N, 91.24°W
Report Text: KUIN 201654Z AUTO 17008KT 4SM HZ BKN011 BKN024 OVC039 02/M01 A3024 RMK AO2 SLP246 T00221006
Loading
Personal Weather Stations






























Interactive Weather Map New forecast layout! Learn more

10-Day Weather Forecast

Advertisements
Track Severe Weather on mobile